createdAt,value
2019-04-07T00:03:51.725Z,99.90
2019-04-07T00:08:59.643Z,99.90
2019-04-07T00:14:07.293Z,99.90
2019-04-07T00:19:15.553Z,99.90
2019-04-07T00:24:22.977Z,99.90
2019-04-07T00:29:30.706Z,99.90
2019-04-07T00:34:38.159Z,99.90
2019-04-07T00:39:45.501Z,99.90
2019-04-07T00:44:53.260Z,99.90
2019-04-07T00:50:00.762Z,99.90
2019-04-07T00:55:08.873Z,99.90
2019-04-07T01:00:17.061Z,99.90
2019-04-07T01:05:35.371Z,99.90
2019-04-07T01:10:34.742Z,99.90
2019-04-07T01:15:42.778Z,99.90
2019-04-07T01:20:51.890Z,99.90
2019-04-07T01:25:59.250Z,99.90
2019-04-07T01:31:07.182Z,99.90
2019-04-07T01:36:15.153Z,99.90
2019-04-07T01:41:34.068Z,99.90
2019-04-07T01:46:58.078Z,99.90
2019-04-07T01:52:21.052Z,99.90
2019-04-07T01:57:47.710Z,99.90
2019-04-07T02:03:23.069Z,99.90
2019-04-07T02:08:40.353Z,99.90
2019-04-07T02:14:13.802Z,99.90
2019-04-07T02:19:40.355Z,99.90
2019-04-07T02:24:57.559Z,99.90
2019-04-07T02:30:23.936Z,99.90
2019-04-07T02:35:52.406Z,99.90
2019-04-07T02:41:10.318Z,99.90
2019-04-07T02:46:36.569Z,99.90
2019-04-07T02:51:57.484Z,99.90
2019-04-07T02:57:26.834Z,99.90
2019-04-07T03:02:59.710Z,99.90
2019-04-07T03:08:25.762Z,99.90
2019-04-07T03:13:54.274Z,99.90
2019-04-07T03:19:27.163Z,99.90
2019-04-07T03:25:11.551Z,99.90
2019-04-07T03:30:51.858Z,99.90
2019-04-07T03:36:11.542Z,99.90
2019-04-07T03:41:24.400Z,99.90
2019-04-07T03:46:39.699Z,99.90
2019-04-07T03:51:54.517Z,99.90
2019-04-07T03:57:23.889Z,99.90
2019-04-07T04:02:48.441Z,99.90
2019-04-07T04:08:06.254Z,99.90
2019-04-07T04:13:51.019Z,99.90
2019-04-07T04:18:58.756Z,99.90
2019-04-07T04:24:06.191Z,99.90
2019-04-07T04:29:14.123Z,99.90
2019-04-07T04:34:21.147Z,99.90
2019-04-07T04:39:29.423Z,99.90
2019-04-07T04:44:36.732Z,99.90
2019-04-07T04:49:44.826Z,99.90
2019-04-07T04:54:54.859Z,99.90
2019-04-07T05:00:02.279Z,99.90
2019-04-07T05:05:13.345Z,99.90
2019-04-07T05:10:21.074Z,99.90
2019-04-07T05:15:28.905Z,99.90
2019-04-07T05:20:36.058Z,99.90
2019-04-07T05:25:44.912Z,99.90
2019-04-07T05:30:52.126Z,99.90
2019-04-07T05:36:00.482Z,99.90
2019-04-07T05:41:07.740Z,99.90
2019-04-07T05:46:14.871Z,99.90
2019-04-07T05:51:22.102Z,99.90
2019-04-07T05:56:30.581Z,99.90
2019-04-07T06:01:38.220Z,99.90
2019-04-07T06:06:45.344Z,99.90
2019-04-07T06:11:53.236Z,99.90
2019-04-07T06:17:01.116Z,99.90
2019-04-07T06:22:08.653Z,99.90
2019-04-07T06:27:16.917Z,99.90
2019-04-07T06:32:25.457Z,99.90
2019-04-07T06:37:33.099Z,99.90
2019-04-07T06:42:43.654Z,99.90
2019-04-07T06:47:56.199Z,99.40
2019-04-07T06:53:28.146Z,98.60
2019-04-07T06:59:11.765Z,98.10
2019-04-07T07:04:32.273Z,95.90
2019-04-07T07:10:25.952Z,93.60
2019-04-07T07:16:05.153Z,92.80
2019-04-07T07:21:27.508Z,90.70
2019-04-07T07:26:35.509Z,89.80
2019-04-07T07:31:44.819Z,87.40
2019-04-07T07:36:54.895Z,82.20
2019-04-07T07:42:01.727Z,81.10
2019-04-07T07:47:10.363Z,76.50
2019-04-07T07:52:20.646Z,68.70
2019-04-07T07:57:26.242Z,69.50
2019-04-07T08:02:33.405Z,66.30
2019-04-07T08:07:44.348Z,66.50
2019-04-07T08:12:49.668Z,62.90
2019-04-07T08:17:58.563Z,59.60
2019-04-07T08:23:06.872Z,65.20
2019-04-07T08:28:14.704Z,65.10
2019-04-07T08:33:22.606Z,60.90
2019-04-07T08:38:31.090Z,59.30
2019-04-07T08:43:38.577Z,51.70
2019-04-07T08:48:49.740Z,54.20
2019-04-07T08:53:54.833Z,59.00
2019-04-07T08:59:02.818Z,61.30
2019-04-07T09:04:10.048Z,51.50
2019-04-07T09:09:17.977Z,55.70
2019-04-07T09:14:25.640Z,48.70
2019-04-07T09:19:54.710Z,46.30
2019-04-07T09:25:28.263Z,45.50
2019-04-07T09:30:54.711Z,49.40
2019-04-07T09:36:36.412Z,55.70
2019-04-07T09:42:03.069Z,46.90
2019-04-07T09:47:39.130Z,51.10
2019-04-07T09:53:08.964Z,51.10
2019-04-07T09:58:33.619Z,52.40
2019-04-07T10:03:50.351Z,52.00
2019-04-07T10:09:21.806Z,42.40
2019-04-07T10:14:48.721Z,43.20
2019-04-07T10:20:19.984Z,53.60
2019-04-07T10:25:48.515Z,52.00
2019-04-07T10:31:20.474Z,42.90
2019-04-07T10:36:51.957Z,44.20
2019-04-07T10:42:30.357Z,45.60
2019-04-07T10:48:06.916Z,47.20
2019-04-07T10:53:39.423Z,40.80
2019-04-07T10:59:21.042Z,47.80
2019-04-07T11:04:59.190Z,43.20
2019-04-07T11:10:34.453Z,48.70
2019-04-07T11:15:57.606Z,48.30
2019-04-07T11:21:35.968Z,39.00
2019-04-07T11:26:59.463Z,48.00
2019-04-07T11:32:21.001Z,47.70
2019-04-07T11:37:32.981Z,46.90
2019-04-07T11:42:46.087Z,36.30
2019-04-07T11:48:12.184Z,38.00
2019-04-07T11:53:44.273Z,41.00
2019-04-07T11:59:07.964Z,51.30
2019-04-07T12:04:27.699Z,44.90
2019-04-07T12:09:52.937Z,41.70
2019-04-07T12:15:22.737Z,34.00
2019-04-07T12:20:38.610Z,43.20
2019-04-07T12:26:07.618Z,34.00
2019-04-07T12:31:43.348Z,33.50
2019-04-07T12:37:10.202Z,31.50
2019-04-07T12:42:40.294Z,36.20
2019-04-07T12:48:09.216Z,32.60
2019-04-07T12:53:42.230Z,31.80
2019-04-07T12:59:14.273Z,33.70
2019-04-07T13:04:37.525Z,28.10
2019-04-07T13:10:07.255Z,28.00
2019-04-07T13:15:45.452Z,28.30
2019-04-07T13:21:01.151Z,30.80
2019-04-07T13:26:18.697Z,28.30
2019-04-07T13:31:38.461Z,27.40
2019-04-07T13:36:54.231Z,26.80
2019-04-07T13:42:27.618Z,26.10
2019-04-07T13:47:48.387Z,25.90
2019-04-07T13:53:20.722Z,25.20
2019-04-07T13:58:37.598Z,25.80
2019-04-07T14:04:02.413Z,28.60
2019-04-07T14:09:35.377Z,25.00
2019-04-07T14:15:14.277Z,26.90
2019-04-07T14:20:47.524Z,29.60
2019-04-07T14:26:11.381Z,29.60
2019-04-07T14:31:37.934Z,27.30
2019-04-07T14:37:17.429Z,27.30
2019-04-07T14:42:52.449Z,26.00
2019-04-07T14:48:17.442Z,29.50
2019-04-07T14:53:46.179Z,28.40
2019-04-07T14:59:16.619Z,25.50
2019-04-07T15:04:29.102Z,27.30
2019-04-07T15:09:43.422Z,31.50
2019-04-07T15:14:52.394Z,26.20
2019-04-07T15:20:00.395Z,26.70
2019-04-07T15:25:08.954Z,29.90
2019-04-07T15:30:18.067Z,28.70
2019-04-07T15:35:25.357Z,29.40
2019-04-07T15:40:35.629Z,28.90
2019-04-07T15:45:44.096Z,31.90
2019-04-07T15:50:51.804Z,31.60
2019-04-07T15:56:03.041Z,28.50
2019-04-07T16:01:09.395Z,32.70
2019-04-07T16:06:17.465Z,31.80
2019-04-07T16:11:27.403Z,32.10
2019-04-07T16:16:35.043Z,29.80
2019-04-07T16:21:44.028Z,30.00
2019-04-07T16:26:51.527Z,33.00
2019-04-07T16:31:58.781Z,33.90
2019-04-07T16:37:09.445Z,34.20
2019-04-07T16:42:17.353Z,33.50
2019-04-07T16:47:29.236Z,31.70
2019-04-07T16:52:35.262Z,33.10
2019-04-07T16:57:42.520Z,34.10
2019-04-07T17:02:49.860Z,34.50
2019-04-07T17:08:08.678Z,38.20
2019-04-07T17:13:27.719Z,37.80
2019-04-07T17:18:41.432Z,38.70
2019-04-07T17:23:53.315Z,40.90
2019-04-07T17:28:59.695Z,42.60
2019-04-07T17:34:10.055Z,44.40
2019-04-07T17:39:24.717Z,45.10
2019-04-07T17:44:51.659Z,46.20
2019-04-07T17:50:14.664Z,46.90
2019-04-07T17:55:46.772Z,48.10
2019-04-07T18:01:08.279Z,48.90
2019-04-07T18:06:33.486Z,49.40
2019-04-07T18:12:14.124Z,50.10
2019-04-07T18:17:33.478Z,50.80
2019-04-07T18:23:03.354Z,51.60
2019-04-07T18:28:37.503Z,52.20
2019-04-07T18:34:06.574Z,52.70
2019-04-07T18:39:31.851Z,53.10
2019-04-07T18:44:57.469Z,53.50
2019-04-07T18:50:41.380Z,53.90
2019-04-07T18:56:09.893Z,54.80
2019-04-07T19:01:38.908Z,55.60
2019-04-07T19:06:55.844Z,55.90
2019-04-07T19:12:23.111Z,56.60
2019-04-07T19:17:58.947Z,57.70
2019-04-07T19:23:26.268Z,58.30
2019-04-07T19:29:00.425Z,59.30
2019-04-07T19:34:18.799Z,61.00
2019-04-07T19:39:47.508Z,63.70
2019-04-07T19:45:24.131Z,66.40
2019-04-07T19:50:39.058Z,69.00
2019-04-07T19:56:05.476Z,73.20
2019-04-07T20:01:31.554Z,76.70
2019-04-07T20:07:04.866Z,81.30
2019-04-07T20:12:42.537Z,84.30
2019-04-07T20:18:29.277Z,86.80
2019-04-07T20:23:52.699Z,90.10
2019-04-07T20:29:20.152Z,91.70
2019-04-07T20:34:47.176Z,91.80
2019-04-07T20:40:11.534Z,93.00
2019-04-07T20:45:34.095Z,94.00
2019-04-07T20:50:50.156Z,95.10
2019-04-07T20:56:22.852Z,95.80
2019-04-07T21:01:59.884Z,96.40
2019-04-07T21:07:09.989Z,97.30
2019-04-07T21:12:32.216Z,97.40
2019-04-07T21:18:11.327Z,98.30
2019-04-07T21:23:36.945Z,98.80
2019-04-07T21:29:02.344Z,99.10
2019-04-07T21:34:16.597Z,99.40
2019-04-07T21:39:55.724Z,99.70
2019-04-07T21:45:38.941Z,99.90
2019-04-07T21:51:16.824Z,99.90
2019-04-07T21:56:44.205Z,99.90
2019-04-07T22:02:19.459Z,99.90
2019-04-07T22:07:41.992Z,99.90
2019-04-07T22:12:49.801Z,99.90
2019-04-07T22:17:56.877Z,99.90
2019-04-07T22:23:04.372Z,99.90
2019-04-07T22:28:12.592Z,99.90
2019-04-07T22:33:22.908Z,99.90
2019-04-07T22:38:29.363Z,99.90
2019-04-07T22:43:37.013Z,99.90
2019-04-07T22:48:44.858Z,99.90
2019-04-07T22:53:54.372Z,99.90
2019-04-07T22:59:01.565Z,99.90
2019-04-07T23:04:08.740Z,99.90
2019-04-07T23:09:16.101Z,99.90
2019-04-07T23:14:23.430Z,99.90
2019-04-07T23:19:30.743Z,99.90
2019-04-07T23:24:37.795Z,99.90
2019-04-07T23:29:44.891Z,99.90
2019-04-07T23:34:52.084Z,99.90
2019-04-07T23:40:00.233Z,99.90
2019-04-07T23:45:08.725Z,99.90
2019-04-07T23:50:16.763Z,99.90
2019-04-07T23:55:24.124Z,99.90
